sensor_id;sensor_type;location;lat;lon;timestamp;P1;durP1;ratioP1;P2;durP2;ratioP2
34836;SDS011;21053;50.848;4.652;2023-06-01T00:03:05;2.17;;;1.35;;
34836;SDS011;21053;50.848;4.652;2023-06-01T00:05:32;2.85;;;1.65;;
34836;SDS011;21053;50.848;4.652;2023-06-01T00:08:01;7.05;;;1.88;;
34836;SDS011;21053;50.848;4.652;2023-06-01T00:10:30;1.67;;;1.13;;
34836;SDS011;21053;50.848;4.652;2023-06-01T00:12:59;5.55;;;1.75;;
34836;SDS011;21053;50.848;4.652;2023-06-01T00:15:24;12.10;;;1.85;;
34836;SDS011;21053;50.848;4.652;2023-06-01T00:17:52;2.15;;;1.95;;
34836;SDS011;21053;50.848;4.652;2023-06-01T00:20:21;4.20;;;1.85;;
34836;SDS011;21053;50.848;4.652;2023-06-01T00:25:20;1.63;;;1.15;;
34836;SDS011;21053;50.848;4.652;2023-06-01T00:27:49;5.72;;;2.95;;
34836;SDS011;21053;50.848;4.652;2023-06-01T00:30:20;1.63;;;1.30;;
34836;SDS011;21053;50.848;4.652;2023-06-01T00:37:51;2.83;;;1.50;;
34836;SDS011;21053;50.848;4.652;2023-06-01T00:40:20;12.18;;;1.30;;
34836;SDS011;21053;50.848;4.652;2023-06-01T00:42:46;8.13;;;1.35;;
34836;SDS011;21053;50.848;4.652;2023-06-01T00:45:11;2.65;;;1.63;;
34836;SDS011;21053;50.848;4.652;2023-06-01T00:47:40;6.78;;;1.35;;
34836;SDS011;21053;50.848;4.652;2023-06-01T00:50:08;1.27;;;1.17;;
34836;SDS011;21053;50.848;4.652;2023-06-01T00:52:37;3.33;;;1.55;;
34836;SDS011;21053;50.848;4.652;2023-06-01T00:57:34;2.38;;;1.48;;
34836;SDS011;21053;50.848;4.652;2023-06-01T01:02:39;0.88;;;0.88;;
34836;SDS011;21053;50.848;4.652;2023-06-01T01:05:07;1.98;;;1.20;;
34836;SDS011;21053;50.848;4.652;2023-06-01T01:10:22;3.17;;;1.25;;
34836;SDS011;21053;50.848;4.652;2023-06-01T01:15:50;7.72;;;1.75;;
34836;SDS011;21053;50.848;4.652;2023-06-01T01:18:51;1.95;;;1.63;;
34836;SDS011;21053;50.848;4.652;2023-06-01T01:21:29;1.67;;;1.20;;
34836;SDS011;21053;50.848;4.652;2023-06-01T01:31:51;1.55;;;1.45;;
34836;SDS011;21053;50.848;4.652;2023-06-01T01:34:21;2.75;;;1.50;;
34836;SDS011;21053;50.848;4.652;2023-06-01T01:36:51;1.88;;;1.50;;
34836;SDS011;21053;50.848;4.652;2023-06-01T01:41:49;1.70;;;1.20;;
34836;SDS011;21053;50.848;4.652;2023-06-01T01:44:14;3.55;;;1.15;;
34836;SDS011;21053;50.848;4.652;2023-06-01T01:46:47;3.10;;;1.35;;
34836;SDS011;21053;50.848;4.652;2023-06-01T01:52:30;1.00;;;0.88;;
34836;SDS011;21053;50.848;4.652;2023-06-01T01:55:02;0.73;;;0.73;;
34836;SDS011;21053;50.848;4.652;2023-06-01T02:00:02;4.97;;;2.33;;
34836;SDS011;21053;50.848;4.652;2023-06-01T02:02:32;0.95;;;0.85;;
34836;SDS011;21053;50.848;4.652;2023-06-01T02:05:01;4.22;;;1.55;;
34836;SDS011;21053;50.848;4.652;2023-06-01T02:07:31;1.75;;;1.33;;
34836;SDS011;21053;50.848;4.652;2023-06-01T02:09:59;0.95;;;0.95;;
34836;SDS011;21053;50.848;4.652;2023-06-01T02:12:25;4.78;;;1.98;;
34836;SDS011;21053;50.848;4.652;2023-06-01T02:14:54;1.63;;;1.35;;
34836;SDS011;21053;50.848;4.652;2023-06-01T02:17:20;3.40;;;2.42;;
34836;SDS011;21053;50.848;4.652;2023-06-01T02:19:49;2.55;;;1.15;;
34836;SDS011;21053;50.848;4.652;2023-06-01T02:22:16;3.35;;;1.73;;
34836;SDS011;21053;50.848;4.652;2023-06-01T02:24:45;1.20;;;1.10;;
34836;SDS011;21053;50.848;4.652;2023-06-01T02:27:12;0.82;;;0.82;;
34836;SDS011;21053;50.848;4.652;2023-06-01T02:29:41;1.25;;;1.15;;
34836;SDS011;21053;50.848;4.652;2023-06-01T02:32:08;1.83;;;1.50;;
34836;SDS011;21053;50.848;4.652;2023-06-01T02:34:37;3.63;;;1.95;;
34836;SDS011;21053;50.848;4.652;2023-06-01T02:37:04;2.00;;;1.42;;
34836;SDS011;21053;50.848;4.652;2023-06-01T02:39:33;2.05;;;1.50;;
34836;SDS011;21053;50.848;4.652;2023-06-01T02:42:01;24.60;;;2.28;;
34836;SDS011;21053;50.848;4.652;2023-06-01T02:44:29;3.83;;;1.30;;
34836;SDS011;21053;50.848;4.652;2023-06-01T02:46:57;5.00;;;1.75;;
34836;SDS011;21053;50.848;4.652;2023-06-01T02:49:23;2.20;;;1.63;;
34836;SDS011;21053;50.848;4.652;2023-06-01T02:51:51;1.38;;;1.27;;
34836;SDS011;21053;50.848;4.652;2023-06-01T02:54:17;9.73;;;2.00;;
34836;SDS011;21053;50.848;4.652;2023-06-01T02:56:42;3.70;;;1.27;;
34836;SDS011;21053;50.848;4.652;2023-06-01T02:59:08;3.95;;;1.95;;
34836;SDS011;21053;50.848;4.652;2023-06-01T03:09:06;1.90;;;1.70;;
34836;SDS011;21053;50.848;4.652;2023-06-01T03:14:07;9.50;;;1.92;;
34836;SDS011;21053;50.848;4.652;2023-06-01T03:16:34;5.32;;;2.42;;
34836;SDS011;21053;50.848;4.652;2023-06-01T03:21:32;1.77;;;1.63;;
34836;SDS011;21053;50.848;4.652;2023-06-01T03:23:59;3.00;;;2.22;;
34836;SDS011;21053;50.848;4.652;2023-06-01T03:26:26;2.10;;;1.50;;
34836;SDS011;21053;50.848;4.652;2023-06-01T03:29:07;1.30;;;1.10;;
34836;SDS011;21053;50.848;4.652;2023-06-01T03:31:40;4.05;;;2.45;;
34836;SDS011;21053;50.848;4.652;2023-06-01T03:34:09;3.53;;;1.80;;
34836;SDS011;21053;50.848;4.652;2023-06-01T03:36:38;5.60;;;2.42;;
34836;SDS011;21053;50.848;4.652;2023-06-01T03:39:06;12.77;;;2.85;;
34836;SDS011;21053;50.848;4.652;2023-06-01T03:41:36;2.05;;;1.73;;
34836;SDS011;21053;50.848;4.652;2023-06-01T03:44:04;2.83;;;1.70;;
34836;SDS011;21053;50.848;4.652;2023-06-01T03:46:32;20.98;;;3.00;;
34836;SDS011;21053;50.848;4.652;2023-06-01T03:49:03;3.08;;;2.03;;
34836;SDS011;21053;50.848;4.652;2023-06-01T03:51:29;10.25;;;2.38;;
34836;SDS011;21053;50.848;4.652;2023-06-01T03:56:26;3.38;;;2.03;;
34836;SDS011;21053;50.848;4.652;2023-06-01T04:01:22;4.88;;;2.50;;
34836;SDS011;21053;50.848;4.652;2023-06-01T04:06:19;1.58;;;1.48;;
34836;SDS011;21053;50.848;4.652;2023-06-01T04:08:47;3.65;;;2.50;;
34836;SDS011;21053;50.848;4.652;2023-06-01T04:11:15;2.03;;;1.90;;
34836;SDS011;21053;50.848;4.652;2023-06-01T04:13:43;2.22;;;1.75;;
34836;SDS011;21053;50.848;4.652;2023-06-01T04:16:12;1.88;;;1.58;;
34836;SDS011;21053;50.848;4.652;2023-06-01T04:18:41;6.53;;;2.78;;
34836;SDS011;21053;50.848;4.652;2023-06-01T04:21:10;8.57;;;2.47;;
34836;SDS011;21053;50.848;4.652;2023-06-01T04:23:36;3.22;;;2.08;;
34836;SDS011;21053;50.848;4.652;2023-06-01T04:26:04;1.83;;;1.63;;
34836;SDS011;21053;50.848;4.652;2023-06-01T04:28:31;3.88;;;2.28;;
34836;SDS011;21053;50.848;4.652;2023-06-01T04:30:59;3.63;;;2.50;;
34836;SDS011;21053;50.848;4.652;2023-06-01T04:33:27;4.38;;;1.98;;
34836;SDS011;21053;50.848;4.652;2023-06-01T04:35:53;6.97;;;2.10;;
34836;SDS011;21053;50.848;4.652;2023-06-01T04:38:21;3.38;;;2.40;;
34836;SDS011;21053;50.848;4.652;2023-06-01T04:40:51;3.40;;;2.40;;
34836;SDS011;21053;50.848;4.652;2023-06-01T04:43:18;5.10;;;2.67;;
34836;SDS011;21053;50.848;4.652;2023-06-01T04:45:45;7.07;;;3.22;;
34836;SDS011;21053;50.848;4.652;2023-06-01T04:48:14;3.53;;;2.17;;
34836;SDS011;21053;50.848;4.652;2023-06-01T04:50:41;7.75;;;2.63;;
34836;SDS011;21053;50.848;4.652;2023-06-01T04:53:11;7.32;;;3.13;;
34836;SDS011;21053;50.848;4.652;2023-06-01T04:58:07;9.52;;;3.10;;
34836;SDS011;21053;50.848;4.652;2023-06-01T05:00:35;4.25;;;2.38;;
34836;SDS011;21053;50.848;4.652;2023-06-01T05:03:01;3.65;;;2.33;;
34836;SDS011;21053;50.848;4.652;2023-06-01T05:05:30;4.78;;;2.05;;
34836;SDS011;21053;50.848;4.652;2023-06-01T05:10:27;7.28;;;3.00;;
34836;SDS011;21053;50.848;4.652;2023-06-01T05:12:56;4.80;;;2.00;;
34836;SDS011;21053;50.848;4.652;2023-06-01T05:15:24;3.95;;;2.47;;
34836;SDS011;21053;50.848;4.652;2023-06-01T05:17:55;6.47;;;3.28;;
34836;SDS011;21053;50.848;4.652;2023-06-01T05:20:26;5.63;;;3.35;;
34836;SDS011;21053;50.848;4.652;2023-06-01T05:22:55;5.53;;;2.67;;
34836;SDS011;21053;50.848;4.652;2023-06-01T05:25:26;4.43;;;2.75;;
34836;SDS011;21053;50.848;4.652;2023-06-01T05:30:27;5.80;;;2.70;;
34836;SDS011;21053;50.848;4.652;2023-06-01T05:35:24;4.75;;;2.60;;
34836;SDS011;21053;50.848;4.652;2023-06-01T05:40:22;5.10;;;3.50;;
34836;SDS011;21053;50.848;4.652;2023-06-01T05:42:48;8.70;;;4.38;;
34836;SDS011;21053;50.848;4.652;2023-06-01T05:45:14;10.20;;;4.57;;
34836;SDS011;21053;50.848;4.652;2023-06-01T05:52:39;14.00;;;3.58;;
34836;SDS011;21053;50.848;4.652;2023-06-01T05:55:08;6.60;;;3.95;;
34836;SDS011;21053;50.848;4.652;2023-06-01T05:57:36;5.38;;;3.08;;
34836;SDS011;21053;50.848;4.652;2023-06-01T06:00:04;12.20;;;3.72;;
34836;SDS011;21053;50.848;4.652;2023-06-01T06:02:36;8.35;;;4.05;;
34836;SDS011;21053;50.848;4.652;2023-06-01T06:05:02;9.15;;;3.35;;
34836;SDS011;21053;50.848;4.652;2023-06-01T06:07:29;9.15;;;3.92;;
34836;SDS011;21053;50.848;4.652;2023-06-01T06:09:55;8.80;;;2.80;;
34836;SDS011;21053;50.848;4.652;2023-06-01T06:17:20;4.43;;;3.45;;
34836;SDS011;21053;50.848;4.652;2023-06-01T06:19:52;16.65;;;3.92;;
34836;SDS011;21053;50.848;4.652;2023-06-01T06:24:48;8.23;;;3.10;;
34836;SDS011;21053;50.848;4.652;2023-06-01T06:27:14;7.35;;;3.15;;
34836;SDS011;21053;50.848;4.652;2023-06-01T06:29:41;5.18;;;2.88;;
34836;SDS011;21053;50.848;4.652;2023-06-01T06:32:13;10.40;;;3.50;;
34836;SDS011;21053;50.848;4.652;2023-06-01T06:34:42;12.05;;;3.38;;
34836;SDS011;21053;50.848;4.652;2023-06-01T06:37:11;7.43;;;3.45;;
34836;SDS011;21053;50.848;4.652;2023-06-01T06:39:39;5.82;;;3.20;;
34836;SDS011;21053;50.848;4.652;2023-06-01T06:42:06;5.75;;;3.33;;
34836;SDS011;21053;50.848;4.652;2023-06-01T06:46:38;5.45;;;3.58;;
34836;SDS011;21053;50.848;4.652;2023-06-01T06:49:06;10.18;;;3.20;;
34836;SDS011;21053;50.848;4.652;2023-06-01T06:51:33;5.47;;;2.95;;
34836;SDS011;21053;50.848;4.652;2023-06-01T06:54:00;6.00;;;3.13;;
34836;SDS011;21053;50.848;4.652;2023-06-01T06:56:33;8.45;;;2.80;;
34836;SDS011;21053;50.848;4.652;2023-06-01T06:59:00;14.45;;;3.78;;
34836;SDS011;21053;50.848;4.652;2023-06-01T07:01:27;5.72;;;3.33;;
34836;SDS011;21053;50.848;4.652;2023-06-01T07:06:37;5.68;;;3.15;;
34836;SDS011;21053;50.848;4.652;2023-06-01T07:09:06;9.75;;;3.47;;
34836;SDS011;21053;50.848;4.652;2023-06-01T07:11:37;6.28;;;3.28;;
34836;SDS011;21053;50.848;4.652;2023-06-01T07:14:05;5.20;;;2.88;;
34836;SDS011;21053;50.848;4.652;2023-06-01T07:16:33;4.47;;;3.42;;
34836;SDS011;21053;50.848;4.652;2023-06-01T07:19:00;8.32;;;3.13;;
34836;SDS011;21053;50.848;4.652;2023-06-01T07:23:57;4.50;;;1.77;;
34836;SDS011;21053;50.848;4.652;2023-06-01T07:26:23;4.63;;;2.88;;
34836;SDS011;21053;50.848;4.652;2023-06-01T07:28:55;7.20;;;4.30;;
34836;SDS011;21053;50.848;4.652;2023-06-01T07:31:24;8.85;;;3.88;;
34836;SDS011;21053;50.848;4.652;2023-06-01T07:33:50;5.85;;;3.38;;
34836;SDS011;21053;50.848;4.652;2023-06-01T07:36:18;9.45;;;2.55;;
34836;SDS011;21053;50.848;4.652;2023-06-01T07:38:48;4.18;;;2.00;;
34836;SDS011;21053;50.848;4.652;2023-06-01T07:41:18;7.13;;;2.60;;
34836;SDS011;21053;50.848;4.652;2023-06-01T07:43:46;5.95;;;3.42;;
34836;SDS011;21053;50.848;4.652;2023-06-01T07:46:12;4.75;;;2.50;;
34836;SDS011;21053;50.848;4.652;2023-06-01T07:48:41;4.25;;;2.63;;
34836;SDS011;21053;50.848;4.652;2023-06-01T07:51:12;3.38;;;2.83;;
34836;SDS011;21053;50.848;4.652;2023-06-01T07:56:08;16.83;;;3.70;;
34836;SDS011;21053;50.848;4.652;2023-06-01T07:58:37;4.53;;;2.80;;
34836;SDS011;21053;50.848;4.652;2023-06-01T08:01:06;2.67;;;2.05;;
34836;SDS011;21053;50.848;4.652;2023-06-01T08:03:34;4.45;;;2.65;;
34836;SDS011;21053;50.848;4.652;2023-06-01T08:06:10;3.35;;;2.28;;
34836;SDS011;21053;50.848;4.652;2023-06-01T08:08:39;2.97;;;1.80;;
34836;SDS011;21053;50.848;4.652;2023-06-01T08:11:20;5.10;;;2.50;;
34836;SDS011;21053;50.848;4.652;2023-06-01T08:13:49;14.32;;;2.88;;
34836;SDS011;21053;50.848;4.652;2023-06-01T08:16:17;6.55;;;2.95;;
34836;SDS011;21053;50.848;4.652;2023-06-01T08:23:44;5.28;;;2.53;;
34836;SDS011;21053;50.848;4.652;2023-06-01T08:26:11;3.72;;;2.47;;
34836;SDS011;21053;50.848;4.652;2023-06-01T08:32:04;2.92;;;2.05;;
34836;SDS011;21053;50.848;4.652;2023-06-01T08:34:30;2.25;;;1.90;;
34836;SDS011;21053;50.848;4.652;2023-06-01T08:36:59;3.88;;;2.35;;
34836;SDS011;21053;50.848;4.652;2023-06-01T08:39:26;7.22;;;2.42;;
34836;SDS011;21053;50.848;4.652;2023-06-01T08:44:46;6.30;;;1.90;;
34836;SDS011;21053;50.848;4.652;2023-06-01T08:49:42;10.80;;;2.85;;
34836;SDS011;21053;50.848;4.652;2023-06-01T08:57:15;4.32;;;1.70;;
34836;SDS011;21053;50.848;4.652;2023-06-01T08:59:43;7.20;;;2.22;;
34836;SDS011;21053;50.848;4.652;2023-06-01T09:02:12;1.80;;;1.52;;
34836;SDS011;21053;50.848;4.652;2023-06-01T09:07:12;5.55;;;1.75;;
34836;SDS011;21053;50.848;4.652;2023-06-01T09:18:08;2.35;;;2.08;;
34836;SDS011;21053;50.848;4.652;2023-06-01T09:20:39;3.20;;;1.58;;
34836;SDS011;21053;50.848;4.652;2023-06-01T09:23:09;4.10;;;2.53;;
34836;SDS011;21053;50.848;4.652;2023-06-01T09:25:35;20.13;;;2.40;;
34836;SDS011;21053;50.848;4.652;2023-06-01T09:28:01;2.63;;;1.85;;
34836;SDS011;21053;50.848;4.652;2023-06-01T09:30:37;5.57;;;2.72;;
34836;SDS011;21053;50.848;4.652;2023-06-01T09:33:15;3.83;;;2.40;;
34836;SDS011;21053;50.848;4.652;2023-06-01T09:35:42;6.80;;;3.10;;
34836;SDS011;21053;50.848;4.652;2023-06-01T09:38:22;13.35;;;2.42;;
34836;SDS011;21053;50.848;4.652;2023-06-01T09:41:00;6.78;;;2.70;;
34836;SDS011;21053;50.848;4.652;2023-06-01T09:43:36;7.15;;;1.63;;
34836;SDS011;21053;50.848;4.652;2023-06-01T09:46:06;17.02;;;3.05;;
34836;SDS011;21053;50.848;4.652;2023-06-01T09:48:44;3.20;;;2.10;;
34836;SDS011;21053;50.848;4.652;2023-06-01T09:51:23;5.78;;;2.10;;
34836;SDS011;21053;50.848;4.652;2023-06-01T09:53:56;5.30;;;2.53;;
34836;SDS011;21053;50.848;4.652;2023-06-01T09:56:25;19.83;;;3.80;;
34836;SDS011;21053;50.848;4.652;2023-06-01T09:59:01;13.90;;;3.47;;
34836;SDS011;21053;50.848;4.652;2023-06-01T10:03:57;10.60;;;2.38;;
34836;SDS011;21053;50.848;4.652;2023-06-01T10:06:30;10.05;;;3.13;;
34836;SDS011;21053;50.848;4.652;2023-06-01T10:11:30;7.25;;;1.63;;
34836;SDS011;21053;50.848;4.652;2023-06-01T10:18:59;5.75;;;3.10;;
34836;SDS011;21053;50.848;4.652;2023-06-01T10:24:00;5.28;;;1.58;;
34836;SDS011;21053;50.848;4.652;2023-06-01T10:32:03;13.60;;;1.92;;
34836;SDS011;21053;50.848;4.652;2023-06-01T10:39:43;4.35;;;2.63;;
34836;SDS011;21053;50.848;4.652;2023-06-01T10:53:27;5.18;;;1.88;;
34836;SDS011;21053;50.848;4.652;2023-06-01T10:58:36;5.85;;;2.13;;
34836;SDS011;21053;50.848;4.652;2023-06-01T11:01:52;4.20;;;2.35;;
34836;SDS011;21053;50.848;4.652;2023-06-01T11:04:36;2.90;;;2.13;;
34836;SDS011;21053;50.848;4.652;2023-06-01T11:10:12;1.67;;;1.52;;
34836;SDS011;21053;50.848;4.652;2023-06-01T11:18:45;3.72;;;1.38;;
34836;SDS011;21053;50.848;4.652;2023-06-01T11:21:27;3.05;;;2.45;;
34836;SDS011;21053;50.848;4.652;2023-06-01T11:24:05;7.57;;;2.42;;
34836;SDS011;21053;50.848;4.652;2023-06-01T11:26:37;8.40;;;2.55;;
34836;SDS011;21053;50.848;4.652;2023-06-01T11:29:23;9.40;;;2.75;;
34836;SDS011;21053;50.848;4.652;2023-06-01T11:31:56;2.63;;;1.95;;
34836;SDS011;21053;50.848;4.652;2023-06-01T11:34:37;2.58;;;2.05;;
34836;SDS011;21053;50.848;4.652;2023-06-01T11:44:56;5.82;;;2.72;;
34836;SDS011;21053;50.848;4.652;2023-06-01T11:49:56;3.63;;;2.03;;
34836;SDS011;21053;50.848;4.652;2023-06-01T11:52:22;3.33;;;1.92;;
34836;SDS011;21053;50.848;4.652;2023-06-01T11:54:50;7.38;;;2.10;;
34836;SDS011;21053;50.848;4.652;2023-06-01T11:58:08;2.50;;;1.60;;
34836;SDS011;21053;50.848;4.652;2023-06-01T12:00:37;4.63;;;2.42;;
34836;SDS011;21053;50.848;4.652;2023-06-01T12:03:09;4.70;;;2.08;;
34836;SDS011;21053;50.848;4.652;2023-06-01T12:05:44;6.20;;;2.45;;
34836;SDS011;21053;50.848;4.652;2023-06-01T12:08:15;2.65;;;1.80;;
34836;SDS011;21053;50.848;4.652;2023-06-01T12:10:44;6.78;;;2.10;;
34836;SDS011;21053;50.848;4.652;2023-06-01T12:13:14;3.35;;;2.00;;
34836;SDS011;21053;50.848;4.652;2023-06-01T12:16:51;9.95;;;2.55;;
34836;SDS011;21053;50.848;4.652;2023-06-01T12:19:18;4.63;;;2.17;;
34836;SDS011;21053;50.848;4.652;2023-06-01T12:21:52;12.07;;;2.17;;
34836;SDS011;21053;50.848;4.652;2023-06-01T12:24:28;4.97;;;1.63;;
34836;SDS011;21053;50.848;4.652;2023-06-01T12:26:59;4.13;;;2.63;;
34836;SDS011;21053;50.848;4.652;2023-06-01T12:29:39;4.07;;;1.98;;
34836;SDS011;21053;50.848;4.652;2023-06-01T12:32:11;4.47;;;2.28;;
34836;SDS011;21053;50.848;4.652;2023-06-01T12:34:41;3.22;;;1.85;;
34836;SDS011;21053;50.848;4.652;2023-06-01T12:37:20;6.82;;;2.00;;
34836;SDS011;21053;50.848;4.652;2023-06-01T12:39:58;19.92;;;2.85;;
34836;SDS011;21053;50.848;4.652;2023-06-01T12:42:36;6.20;;;1.50;;
34836;SDS011;21053;50.848;4.652;2023-06-01T12:45:04;8.20;;;1.65;;
34836;SDS011;21053;50.848;4.652;2023-06-01T12:47:41;4.95;;;2.40;;
34836;SDS011;21053;50.848;4.652;2023-06-01T12:50:13;2.08;;;1.65;;
34836;SDS011;21053;50.848;4.652;2023-06-01T12:52:40;4.15;;;2.03;;
34836;SDS011;21053;50.848;4.652;2023-06-01T12:55:09;5.53;;;2.63;;
34836;SDS011;21053;50.848;4.652;2023-06-01T12:57:41;5.40;;;2.38;;
34836;SDS011;21053;50.848;4.652;2023-06-01T13:00:08;3.03;;;1.90;;
34836;SDS011;21053;50.848;4.652;2023-06-01T13:02:34;4.47;;;2.47;;
34836;SDS011;21053;50.848;4.652;2023-06-01T13:05:00;2.88;;;1.75;;
34836;SDS011;21053;50.848;4.652;2023-06-01T13:07:26;5.60;;;2.65;;
34836;SDS011;21053;50.848;4.652;2023-06-01T13:12:23;4.45;;;1.90;;
34836;SDS011;21053;50.848;4.652;2023-06-01T13:14:49;2.05;;;1.80;;
34836;SDS011;21053;50.848;4.652;2023-06-01T13:17:18;6.60;;;2.15;;
34836;SDS011;21053;50.848;4.652;2023-06-01T13:20:02;8.43;;;2.83;;
34836;SDS011;21053;50.848;4.652;2023-06-01T13:25:03;8.23;;;2.97;;
34836;SDS011;21053;50.848;4.652;2023-06-01T13:27:30;5.28;;;2.50;;
34836;SDS011;21053;50.848;4.652;2023-06-01T13:29:59;5.40;;;2.20;;
34836;SDS011;21053;50.848;4.652;2023-06-01T13:34:58;5.75;;;1.52;;
34836;SDS011;21053;50.848;4.652;2023-06-01T13:39:55;4.72;;;2.15;;
34836;SDS011;21053;50.848;4.652;2023-06-01T13:44:51;4.68;;;1.67;;
34836;SDS011;21053;50.848;4.652;2023-06-01T13:47:17;2.50;;;1.92;;
34836;SDS011;21053;50.848;4.652;2023-06-01T13:49:47;1.27;;;0.98;;
34836;SDS011;21053;50.848;4.652;2023-06-01T13:54:43;4.35;;;1.70;;
34836;SDS011;21053;50.848;4.652;2023-06-01T13:57:09;7.00;;;1.83;;
34836;SDS011;21053;50.848;4.652;2023-06-01T13:59:38;2.38;;;1.48;;
34836;SDS011;21053;50.848;4.652;2023-06-01T14:02:04;6.32;;;2.60;;
34836;SDS011;21053;50.848;4.652;2023-06-01T14:04:31;5.80;;;1.65;;
34836;SDS011;21053;50.848;4.652;2023-06-01T14:06:58;5.80;;;1.90;;
34836;SDS011;21053;50.848;4.652;2023-06-01T14:09:23;3.67;;;1.77;;
34836;SDS011;21053;50.848;4.652;2023-06-01T14:11:55;4.47;;;1.45;;
34836;SDS011;21053;50.848;4.652;2023-06-01T14:14:23;3.60;;;1.85;;
34836;SDS011;21053;50.848;4.652;2023-06-01T14:16:52;4.93;;;2.35;;
34836;SDS011;21053;50.848;4.652;2023-06-01T14:19:19;1.92;;;1.45;;
34836;SDS011;21053;50.848;4.652;2023-06-01T14:21:46;2.67;;;1.63;;
34836;SDS011;21053;50.848;4.652;2023-06-01T14:24:15;4.30;;;1.75;;
34836;SDS011;21053;50.848;4.652;2023-06-01T14:26:43;2.40;;;1.23;;
34836;SDS011;21053;50.848;4.652;2023-06-01T14:29:13;1.23;;;1.02;;
34836;SDS011;21053;50.848;4.652;2023-06-01T14:31:40;3.45;;;2.33;;
34836;SDS011;21053;50.848;4.652;2023-06-01T14:34:07;8.07;;;2.22;;
34836;SDS011;21053;50.848;4.652;2023-06-01T14:39:04;8.02;;;2.20;;
34836;SDS011;21053;50.848;4.652;2023-06-01T14:41:32;2.33;;;1.27;;
34836;SDS011;21053;50.848;4.652;2023-06-01T14:44:01;4.45;;;1.90;;
34836;SDS011;21053;50.848;4.652;2023-06-01T14:48:57;20.10;;;2.13;;
34836;SDS011;21053;50.848;4.652;2023-06-01T14:51:26;3.28;;;2.00;;
34836;SDS011;21053;50.848;4.652;2023-06-01T14:53:55;1.65;;;1.52;;
34836;SDS011;21053;50.848;4.652;2023-06-01T14:56:22;4.90;;;1.88;;
34836;SDS011;21053;50.848;4.652;2023-06-01T14:58:50;1.70;;;1.60;;
34836;SDS011;21053;50.848;4.652;2023-06-01T15:01:15;3.38;;;1.73;;
34836;SDS011;21053;50.848;4.652;2023-06-01T15:03:44;4.90;;;1.77;;
34836;SDS011;21053;50.848;4.652;2023-06-01T15:06:10;3.22;;;1.98;;
34836;SDS011;21053;50.848;4.652;2023-06-01T15:08:35;18.15;;;1.75;;
34836;SDS011;21053;50.848;4.652;2023-06-01T15:11:03;2.05;;;1.25;;
34836;SDS011;21053;50.848;4.652;2023-06-01T15:13:30;1.20;;;1.20;;
34836;SDS011;21053;50.848;4.652;2023-06-01T15:15:56;3.03;;;1.38;;
34836;SDS011;21053;50.848;4.652;2023-06-01T15:18:22;6.10;;;1.92;;
34836;SDS011;21053;50.848;4.652;2023-06-01T15:23:17;1.85;;;1.35;;
34836;SDS011;21053;50.848;4.652;2023-06-01T15:25:47;2.05;;;1.85;;
34836;SDS011;21053;50.848;4.652;2023-06-01T15:28:15;1.77;;;1.33;;
34836;SDS011;21053;50.848;4.652;2023-06-01T15:30:42;7.93;;;1.73;;
34836;SDS011;21053;50.848;4.652;2023-06-01T15:33:10;2.10;;;1.45;;
34836;SDS011;21053;50.848;4.652;2023-06-01T15:35:39;6.32;;;1.92;;
34836;SDS011;21053;50.848;4.652;2023-06-01T15:38:08;8.98;;;1.98;;
34836;SDS011;21053;50.848;4.652;2023-06-01T15:40:34;4.20;;;1.85;;
34836;SDS011;21053;50.848;4.652;2023-06-01T15:43:03;1.67;;;1.40;;
34836;SDS011;21053;50.848;4.652;2023-06-01T15:48:00;4.10;;;1.90;;
34836;SDS011;21053;50.848;4.652;2023-06-01T15:50:26;0.95;;;0.95;;
34836;SDS011;21053;50.848;4.652;2023-06-01T15:52:52;2.40;;;1.73;;
34836;SDS011;21053;50.848;4.652;2023-06-01T15:55:20;1.40;;;1.30;;
34836;SDS011;21053;50.848;4.652;2023-06-01T15:57:48;3.53;;;1.95;;
34836;SDS011;21053;50.848;4.652;2023-06-01T16:02:43;0.80;;;0.80;;
34836;SDS011;21053;50.848;4.652;2023-06-01T16:05:11;7.78;;;1.52;;
34836;SDS011;21053;50.848;4.652;2023-06-01T16:07:38;8.35;;;1.55;;
34836;SDS011;21053;50.848;4.652;2023-06-01T16:15:13;1.30;;;1.20;;
34836;SDS011;21053;50.848;4.652;2023-06-01T16:17:40;2.08;;;1.75;;
34836;SDS011;21053;50.848;4.652;2023-06-01T16:20:07;2.97;;;1.73;;
34836;SDS011;21053;50.848;4.652;2023-06-01T16:22:35;3.83;;;2.13;;
34836;SDS011;21053;50.848;4.652;2023-06-01T16:25:02;9.73;;;1.60;;
34836;SDS011;21053;50.848;4.652;2023-06-01T16:27:29;2.13;;;1.35;;
34836;SDS011;21053;50.848;4.652;2023-06-01T16:29:58;5.47;;;1.90;;
34836;SDS011;21053;50.848;4.652;2023-06-01T16:35:09;6.88;;;1.30;;
34836;SDS011;21053;50.848;4.652;2023-06-01T16:37:49;3.67;;;1.05;;
34836;SDS011;21053;50.848;4.652;2023-06-01T16:42:44;2.05;;;1.13;;
34836;SDS011;21053;50.848;4.652;2023-06-01T16:45:11;3.47;;;1.60;;
34836;SDS011;21053;50.848;4.652;2023-06-01T16:47:39;2.85;;;2.20;;
34836;SDS011;21053;50.848;4.652;2023-06-01T16:50:05;1.00;;;0.95;;
34836;SDS011;21053;50.848;4.652;2023-06-01T16:52:39;2.25;;;1.52;;
34836;SDS011;21053;50.848;4.652;2023-06-01T16:55:10;6.45;;;2.42;;
34836;SDS011;21053;50.848;4.652;2023-06-01T16:57:39;3.67;;;1.83;;
34836;SDS011;21053;50.848;4.652;2023-06-01T17:00:05;3.72;;;2.00;;
34836;SDS011;21053;50.848;4.652;2023-06-01T17:02:33;4.38;;;2.50;;
34836;SDS011;21053;50.848;4.652;2023-06-01T17:05:00;1.48;;;1.05;;
34836;SDS011;21053;50.848;4.652;2023-06-01T17:07:28;6.75;;;1.80;;
34836;SDS011;21053;50.848;4.652;2023-06-01T17:09:55;11.38;;;1.85;;
34836;SDS011;21053;50.848;4.652;2023-06-01T17:12:21;16.38;;;2.30;;
34836;SDS011;21053;50.848;4.652;2023-06-01T17:14:50;3.03;;;1.77;;
34836;SDS011;21053;50.848;4.652;2023-06-01T17:20:05;3.25;;;1.38;;
34836;SDS011;21053;50.848;4.652;2023-06-01T17:22:35;1.38;;;1.10;;
34836;SDS011;21053;50.848;4.652;2023-06-01T17:27:35;4.90;;;1.90;;
34836;SDS011;21053;50.848;4.652;2023-06-01T17:35:08;8.00;;;1.95;;
34836;SDS011;21053;50.848;4.652;2023-06-01T17:37:37;2.22;;;1.13;;
34836;SDS011;21053;50.848;4.652;2023-06-01T17:40:04;3.92;;;1.90;;
34836;SDS011;21053;50.848;4.652;2023-06-01T17:42:34;1.92;;;1.02;;
34836;SDS011;21053;50.848;4.652;2023-06-01T17:45:16;4.43;;;2.30;;
34836;SDS011;21053;50.848;4.652;2023-06-01T17:47:45;13.35;;;1.30;;
34836;SDS011;21053;50.848;4.652;2023-06-01T17:50:14;2.42;;;1.33;;
34836;SDS011;21053;50.848;4.652;2023-06-01T17:52:42;12.35;;;1.50;;
34836;SDS011;21053;50.848;4.652;2023-06-01T17:55:14;1.52;;;1.35;;
34836;SDS011;21053;50.848;4.652;2023-06-01T17:57:43;5.32;;;1.70;;
34836;SDS011;21053;50.848;4.652;2023-06-01T18:00:16;1.20;;;1.02;;
34836;SDS011;21053;50.848;4.652;2023-06-01T18:02:46;2.80;;;1.25;;
34836;SDS011;21053;50.848;4.652;2023-06-01T18:05:15;3.22;;;2.00;;
34836;SDS011;21053;50.848;4.652;2023-06-01T18:10:13;0.93;;;0.93;;
34836;SDS011;21053;50.848;4.652;2023-06-01T18:20:04;2.72;;;1.65;;
34836;SDS011;21053;50.848;4.652;2023-06-01T18:25:02;4.80;;;1.50;;
34836;SDS011;21053;50.848;4.652;2023-06-01T18:30:00;6.38;;;1.83;;
34836;SDS011;21053;50.848;4.652;2023-06-01T18:34:55;0.88;;;0.63;;
34836;SDS011;21053;50.848;4.652;2023-06-01T18:37:21;1.25;;;1.15;;
34836;SDS011;21053;50.848;4.652;2023-06-01T18:39:48;1.85;;;1.02;;
34836;SDS011;21053;50.848;4.652;2023-06-01T18:42:15;1.40;;;1.30;;
34836;SDS011;21053;50.848;4.652;2023-06-01T18:44:42;4.28;;;1.50;;
34836;SDS011;21053;50.848;4.652;2023-06-01T18:47:11;3.08;;;1.38;;
34836;SDS011;21053;50.848;4.652;2023-06-01T18:49:43;3.45;;;1.20;;
34836;SDS011;21053;50.848;4.652;2023-06-01T18:52:11;2.38;;;0.98;;
34836;SDS011;21053;50.848;4.652;2023-06-01T18:54:39;0.85;;;0.85;;
34836;SDS011;21053;50.848;4.652;2023-06-01T18:57:05;11.10;;;1.17;;
34836;SDS011;21053;50.848;4.652;2023-06-01T19:04:30;1.50;;;1.05;;
34836;SDS011;21053;50.848;4.652;2023-06-01T19:06:56;1.60;;;1.10;;